Погода Оницевичина 2 недели

Брестская область, Белоруссия

18 - 31 июля
  • 18июля
    Сегодня
    +16°
    +26°
    Ясно и безоблачно
    ВремяПогодаТемператураВлажностьДавлениеВетер, м/сВероятность осадков
    00:00Облачно с прояснениями+22°C78 %751 мм3.2 м/с5 %
    03:00Облачно с прояснениями+20°C87 %751 мм1.9 м/с6 %
    06:00Небольшая облачность, возможен дождь с грозой+19°C91 %751 мм2.3 м/с64 %
    09:00Пасмурно, дождь+20°C87 %751 мм2.2 м/с74 %
    12:00Практически безоблачно+24°C64 %751 мм4.2 м/с37 %
    15:00Ясно и безоблачно+25°C50 %751 мм5.3 м/с15 %
    18:00Ясно и безоблачно+25°C51 %751 мм5.0 м/с11 %
    21:00Ясно и безоблачно+23°C66 %751 мм2.2 м/с2 %
  • 19июля
    Пятница
    +14°
    +25°
    Ясно и безоблачно
    ВремяПогодаТемператураВлажностьДавлениеВетер, м/сВероятность осадков
    00:00Практически безоблачно+19°C73 %752 мм2.6 м/с2 %
    03:00Небольшая облачность+17°C75 %752 мм3.0 м/с2 %
    06:00Ясно и безоблачно+16°C84 %752 мм2.8 м/с2 %
    09:00Облачно с прояснениями+18°C73 %752 мм2.6 м/с2 %
    12:00Ясно и безоблачно+22°C57 %752 мм3.3 м/с2 %
    15:00Ясно и безоблачно+24°C52 %751 мм3.7 м/с2 %
    18:00Ясно и безоблачно+25°C50 %750 мм3.9 м/с2 %
    21:00Ясно и безоблачно+22°C69 %749 мм1.8 м/с2 %
  • 20июля
    Суббота
    +14°
    +25°
    Ясно и безоблачно
    ВремяПогодаТемператураВлажностьДавлениеВетер, м/сВероятность осадков
    00:00Ясно и безоблачно+18°C74 %749 мм2.6 м/с2 %
    03:00Ясно и безоблачно+16°C78 %749 мм2.2 м/с2 %
    06:00Практически безоблачно+15°C89 %748 мм1.5 м/с2 %
    09:00Практически безоблачно+19°C69 %748 мм1.8 м/с2 %
    12:00Ясно и безоблачно+22°C52 %748 мм2.5 м/с2 %
    15:00Ясно и безоблачно+24°C44 %747 мм3.0 м/с2 %
    18:00Ясно и безоблачно+25°C45 %746 мм2.7 м/с2 %
    21:00Ясно и безоблачно+22°C69 %746 мм1.9 м/с2 %
  • 21июля
    Воскресенье
    +16°
    +27°
    Практически безоблачно
    ВремяПогодаТемператураВлажностьДавлениеВетер, м/сВероятность осадков
    00:00Ясно и безоблачно+19°C72 %746 мм1.3 м/с2 %
    03:00Ясно и безоблачно+18°C76 %745 мм0.8 м/с2 %
    06:00Ясно и безоблачно+14°C93 %745 мм1.6 м/с2 %
    09:00Ясно и безоблачно+20°C67 %745 мм1.2 м/с2 %
    12:00Ясно и безоблачно+24°C46 %745 мм1.6 м/с4 %
    15:00Практически безоблачно+26°C40 %744 мм1.7 м/с12 %
    18:00Облачно с прояснениями+26°C39 %743 мм1.4 м/с6 %
    21:00Практически безоблачно+24°C60 %743 мм0.9 м/с4 %
  • 22июля
    Понедельник
    +17°
    +28°
    Ясно и безоблачно
    ВремяПогодаТемператураВлажностьДавлениеВетер, м/сВероятность осадков
    00:00Ясно и безоблачно+21°C65 %743 мм1.2 м/с2 %
    03:00Ясно и безоблачно+17°C81 %743 мм1.8 м/с2 %
    06:00Ясно и безоблачно+17°C82 %743 мм1.6 м/с2 %
    09:00Практически безоблачно+22°C63 %744 мм1.2 м/с2 %
    12:00Практически безоблачно+27°C40 %744 мм2.1 м/с6 %
    15:00Ясно и безоблачно+28°C38 %744 мм1.9 м/с12 %
    18:00Ясно и безоблачно+28°C39 %743 мм2.0 м/с11 %
    21:00Практически безоблачно+24°C61 %744 мм1.9 м/с14 %
Мы используем cookies
Соглашаюсь